Time;durP1;ratioP1;P1;durP2;ratioP2;P2;SDS_P1;SDS_P2;PMS_P1;PMS_P2;Temp;Humidity;BMP_temperature;BMP_pressure;BME280_temperature;BME280_humidity;BME280_pressure;Samples;Min_cycle;Max_cycle;Signal;HPM_P1;HPM_P2
2022/10/30 00:00:28;;;;;;;29.73;9.40;;;14.20;99.90;;;;;;4947047;28;20066;-83
2022/10/30 00:02:54;;;;;;;18.42;8.95;;;14.30;99.90;;;;;;4934079;29;20084;-84
2022/10/30 00:05:19;;;;;;;18.48;8.30;;;14.30;99.90;;;;;;4918620;29;20426;-84
2022/10/30 00:07:49;;;;;;;19.45;8.10;;;14.20;99.90;;;;;;4932229;29;20442;-83
2022/10/30 00:10:16;;;;;;;16.95;8.23;;;14.30;99.90;;;;;;4931374;29;20520;-86
2022/10/30 00:12:45;;;;;;;19.83;7.70;;;14.20;99.90;;;;;;4913982;29;20051;-84
2022/10/30 00:15:11;;;;;;;13.93;8.07;;;14.20;99.90;;;;;;4920669;29;20066;-84
2022/10/30 00:17:36;;;;;;;16.63;8.30;;;14.10;99.90;;;;;;4912618;29;20036;-84
2022/10/30 00:20:11;;;;;;;17.20;8.50;;;14.10;99.90;;;;;;4924970;29;20128;-85
2022/10/30 00:22:37;;;;;;;18.73;8.37;;;14.20;99.90;;;;;;4924682;29;20067;-84
2022/10/30 00:25:03;;;;;;;18.23;8.30;;;14.10;99.90;;;;;;4900842;29;20040;-84
2022/10/30 00:27:31;;;;;;;12.90;8.57;;;14.20;99.90;;;;;;4913126;29;20040;-83
2022/10/30 00:29:57;;;;;;;17.38;8.13;;;14.20;99.90;;;;;;4914384;29;20059;-86
2022/10/30 00:32:23;;;;;;;17.70;9.02;;;14.10;99.90;;;;;;4913931;29;20557;-84
2022/10/30 00:34:48;;;;;;;23.92;8.57;;;14.10;99.90;;;;;;4913512;29;20506;-85
2022/10/30 00:37:14;;;;;;;26.48;8.85;;;14.10;99.90;;;;;;4928513;29;20043;-83
2022/10/30 00:39:39;;;;;;;20.35;6.57;;;14.50;99.90;;;;;;4913391;29;20043;-83
2022/10/30 00:42:05;;;;;;;20.25;8.15;;;14.10;99.90;;;;;;4915746;29;20043;-83
2022/10/30 00:44:39;;;;;;;29.77;9.10;;;13.90;99.90;;;;;;4930393;29;20123;-86
2022/10/30 00:47:30;;;;;;;18.40;9.05;;;13.90;99.90;;;;;;4918071;29;20051;-83
2022/10/30 00:50:16;;;;;;;15.68;7.90;;;13.90;99.90;;;;;;4928216;28;20056;-83
2022/10/30 00:52:49;;;;;;;14.30;8.15;;;13.90;99.90;;;;;;4942753;28;20047;-83
2022/10/30 00:55:21;;;;;;;12.85;8.25;;;13.90;99.90;;;;;;4930202;29;20050;-85
2022/10/30 00:57:49;;;;;;;20.77;7.80;;;13.90;99.90;;;;;;4929207;29;20529;-83
2022/10/30 01:00:16;;;;;;;16.73;7.97;;;13.90;99.90;;;;;;4914321;29;20039;-83
2022/10/30 01:02:49;;;;;;;22.75;8.10;;;13.90;99.90;;;;;;4919207;29;20048;-83
2022/10/30 01:05:18;;;;;;;17.05;7.50;;;14.00;99.90;;;;;;4928022;29;20039;-83
2022/10/30 01:07:44;;;;;;;16.83;8.75;;;14.00;99.90;;;;;;4930405;29;20765;-84
2022/10/30 01:10:12;;;;;;;17.95;9.15;;;14.00;99.90;;;;;;4937397;29;20053;-84
2022/10/30 01:12:38;;;;;;;14.45;7.80;;;14.00;99.90;;;;;;4962133;28;20039;-84
2022/10/30 01:15:06;;;;;;;17.98;8.15;;;14.00;99.90;;;;;;4938326;29;20486;-85
2022/10/30 01:17:52;;;;;;;19.17;8.48;;;14.10;99.90;;;;;;4949921;29;20090;-84
2022/10/30 01:20:56;;;;;;;14.60;7.72;;;14.10;99.90;;;;;;4930464;29;20087;-83
2022/10/30 01:23:45;;;;;;;14.63;8.20;;;14.00;99.90;;;;;;4891757;29;20670;-83
2022/10/30 01:26:32;;;;;;;16.10;8.25;;;14.00;99.90;;;;;;4908505;29;20555;-84
2022/10/30 01:29:25;;;;;;;19.30;9.02;;;14.00;99.90;;;;;;4943118;28;20179;-83
2022/10/30 01:32:07;;;;;;;18.20;8.88;;;14.50;99.90;;;;;;4931345;29;20044;-85
2022/10/30 01:34:42;;;;;;;16.25;7.70;;;14.10;99.90;;;;;;4929624;29;20067;-86
2022/10/30 01:37:41;;;;;;;15.23;7.82;;;14.10;99.90;;;;;;4928249;29;20538;-83
2022/10/30 01:40:16;;;;;;;16.42;7.97;;;14.00;99.90;;;;;;4895075;29;20680;-86
2022/10/30 01:42:44;;;;;;;18.65;7.93;;;14.00;99.90;;;;;;4914188;29;20047;-83
2022/10/30 01:45:43;;;;;;;17.95;8.43;;;14.10;99.90;;;;;;4945453;28;20992;-86
2022/10/30 01:48:38;;;;;;;16.90;8.32;;;14.10;99.90;;;;;;4940491;29;20094;-85
2022/10/30 01:51:39;;;;;;;19.40;8.68;;;14.10;99.90;;;;;;4934821;29;20035;-84
2022/10/30 01:54:26;;;;;;;14.70;8.68;;;14.00;99.90;;;;;;4935143;29;20730;-83
2022/10/30 01:57:07;;;;;;;17.65;8.63;;;14.10;99.90;;;;;;4903234;29;20103;-84
2022/10/30 01:59:47;;;;;;;22.85;9.63;;;14.00;99.90;;;;;;4933153;29;20052;-83
2022/10/30 02:02:13;;;;;;;15.27;8.48;;;14.10;99.90;;;;;;4926236;29;20062;-84
2022/10/30 02:04:39;;;;;;;15.73;8.77;;;14.00;99.90;;;;;;4935170;29;20072;-84
2022/10/30 02:07:05;;;;;;;17.05;8.57;;;14.00;99.90;;;;;;4929628;29;20082;-86
2022/10/30 02:09:31;;;;;;;19.55;9.20;;;14.10;99.90;;;;;;4920372;29;20399;-83
2022/10/30 02:11:58;;;;;;;19.50;8.68;;;14.00;99.90;;;;;;4918271;29;20032;-86
2022/10/30 02:14:28;;;;;;;16.33;8.60;;;14.00;99.90;;;;;;4934366;29;20035;-84
2022/10/30 02:16:57;;;;;;;19.55;8.35;;;13.90;99.90;;;;;;4922116;29;20039;-83
2022/10/30 02:19:23;;;;;;;19.40;8.73;;;13.90;99.90;;;;;;4938385;29;20131;-84
2022/10/30 02:21:49;;;;;;;19.70;8.65;;;13.90;99.90;;;;;;4935904;29;20187;-83
2022/10/30 02:24:16;;;;;;;15.10;8.52;;;13.90;99.90;;;;;;4921081;29;20049;-84
2022/10/30 02:26:41;;;;;;;18.13;8.85;;;13.80;99.90;;;;;;4929462;29;20494;-83
2022/10/30 02:29:07;;;;;;;13.35;7.68;;;13.80;99.90;;;;;;4928771;29;20043;-83
2022/10/30 02:31:32;;;;;;;15.50;8.82;;;13.80;99.90;;;;;;4939813;29;20090;-83
2022/10/30 02:33:58;;;;;;;21.33;8.63;;;13.80;99.90;;;;;;4937724;29;20161;-84
2022/10/30 02:36:24;;;;;;;19.70;9.10;;;13.80;99.90;;;;;;4924728;29;20035;-83
2022/10/30 02:38:49;;;;;;;18.83;9.07;;;13.80;99.90;;;;;;4917434;29;20411;-84
2022/10/30 02:41:15;;;;;;;16.33;9.43;;;13.80;99.90;;;;;;4924043;29;20040;-83
2022/10/30 02:43:40;;;;;;;18.02;7.63;;;13.80;99.90;;;;;;4930998;29;20048;-83
2022/10/30 02:46:09;;;;;;;16.30;8.30;;;13.80;99.90;;;;;;4918550;29;20520;-83
2022/10/30 02:48:34;;;;;;;14.52;8.50;;;13.70;99.90;;;;;;4915174;29;20040;-83
2022/10/30 02:51:02;;;;;;;20.17;8.55;;;13.90;99.90;;;;;;4919816;29;20498;-86
2022/10/30 02:53:34;;;;;;;20.00;8.50;;;13.60;99.90;;;;;;4921813;29;20046;-83
2022/10/30 02:56:08;;;;;;;18.70;9.00;;;13.60;99.90;;;;;;4917002;29;20086;-83
2022/10/30 02:58:34;;;;;;;13.18;8.80;;;13.60;99.90;;;;;;4915857;29;20047;-84
2022/10/30 03:01:12;;;;;;;11.93;6.75;;;13.50;99.90;;;;;;4933639;29;20074;-83
2022/10/30 03:03:38;;;;;;;17.20;8.15;;;13.50;99.90;;;;;;4915476;29;20131;-84
2022/10/30 03:06:06;;;;;;;21.13;8.65;;;13.40;99.90;;;;;;4913136;29;20117;-84
2022/10/30 03:08:33;;;;;;;14.73;9.05;;;13.40;99.90;;;;;;4934917;29;20401;-84
2022/10/30 03:11:09;;;;;;;25.08;9.30;;;13.30;99.90;;;;;;4926077;29;20047;-83
2022/10/30 03:13:36;;;;;;;18.58;7.93;;;13.30;99.90;;;;;;4918853;29;20031;-84
2022/10/30 03:16:07;;;;;;;15.70;8.32;;;13.30;99.90;;;;;;4930696;29;20067;-84
2022/10/30 03:18:33;;;;;;;21.08;9.20;;;13.30;99.90;;;;;;4920631;29;20044;-84
2022/10/30 03:21:00;;;;;;;19.92;8.82;;;13.50;99.90;;;;;;4911910;29;20409;-84
2022/10/30 03:23:27;;;;;;;17.90;8.68;;;13.30;99.90;;;;;;4936650;29;20036;-83
2022/10/30 03:25:57;;;;;;;17.05;7.95;;;13.30;99.90;;;;;;4935534;29;20095;-84
2022/10/30 03:28:25;;;;;;;16.55;9.30;;;13.30;99.90;;;;;;4930394;29;20046;-85
2022/10/30 03:30:56;;;;;;;18.55;9.07;;;13.20;99.90;;;;;;4891209;29;20039;-86
2022/10/30 03:33:22;;;;;;;14.35;8.40;;;13.30;99.90;;;;;;4925964;29;20086;-88
2022/10/30 03:35:47;;;;;;;19.40;8.73;;;13.20;99.90;;;;;;4913688;29;20063;-83
2022/10/30 03:38:13;;;;;;;21.00;8.00;;;13.20;99.90;;;;;;4914370;29;20056;-83
2022/10/30 03:40:39;;;;;;;17.85;9.73;;;13.30;99.90;;;;;;4912598;29;20043;-85
2022/10/30 03:43:06;;;;;;;18.40;9.63;;;13.20;99.90;;;;;;4909654;29;20044;-86
2022/10/30 03:45:32;;;;;;;15.02;8.50;;;13.20;99.90;;;;;;4908238;29;20031;-83
2022/10/30 03:48:02;;;;;;;16.02;6.78;;;13.10;99.90;;;;;;4926125;29;20039;-84
2022/10/30 03:50:28;;;;;;;20.85;8.10;;;13.30;99.90;;;;;;4914366;29;20095;-84
2022/10/30 03:52:54;;;;;;;18.45;8.82;;;13.00;99.90;;;;;;4927390;29;20662;-83
2022/10/30 03:55:20;;;;;;;15.02;8.57;;;13.00;99.90;;;;;;4911773;29;20035;-84
2022/10/30 03:57:46;;;;;;;19.75;7.65;;;13.00;99.90;;;;;;4924400;29;20036;-85
2022/10/30 04:00:12;;;;;;;18.75;8.80;;;13.40;99.90;;;;;;4915876;29;20078;-84
2022/10/30 04:02:37;;;;;;;15.55;8.23;;;12.90;99.90;;;;;;4938987;28;20071;-83
2022/10/30 04:05:03;;;;;;;18.95;8.55;;;12.90;99.90;;;;;;4927476;29;20509;-83
2022/10/30 04:07:29;;;;;;;11.88;6.63;;;12.80;99.90;;;;;;4925713;29;20039;-85
2022/10/30 04:09:55;;;;;;;15.45;7.20;;;12.80;99.90;;;;;;4901093;29;20042;-84
2022/10/30 04:12:20;;;;;;;20.88;6.68;;;12.70;99.90;;;;;;4920026;29;20044;-85
2022/10/30 04:14:46;;;;;;;9.63;6.07;;;12.50;99.90;;;;;;4906315;29;20506;-85
2022/10/30 04:17:12;;;;;;;12.35;6.15;;;12.60;99.90;;;;;;4933166;28;20135;-83
2022/10/30 04:19:38;;;;;;;18.55;8.27;;;12.50;99.90;;;;;;4903713;29;20096;-85
2022/10/30 04:22:04;;;;;;;13.02;8.05;;;12.40;99.90;;;;;;4919920;29;20066;-85
2022/10/30 04:24:29;;;;;;;18.08;9.13;;;12.40;99.90;;;;;;4905007;29;20063;-85
2022/10/30 04:26:55;;;;;;;15.90;9.63;;;12.50;99.90;;;;;;4906810;29;20044;-83
2022/10/30 04:29:20;;;;;;;13.10;7.50;;;12.50;99.90;;;;;;4933756;28;20071;-84
2022/10/30 04:31:49;;;;;;;13.80;7.63;;;12.80;99.90;;;;;;4914672;29;20048;-84
2022/10/30 04:34:15;;;;;;;18.48;7.55;;;12.40;99.90;;;;;;4920434;29;20047;-84
2022/10/30 04:36:40;;;;;;;16.38;8.55;;;12.40;99.90;;;;;;4920487;29;20043;-84
2022/10/30 04:39:06;;;;;;;20.63;9.00;;;12.40;99.90;;;;;;4907616;29;20086;-82
2022/10/30 04:41:31;;;;;;;12.52;7.28;;;12.40;99.90;;;;;;4926709;29;20115;-84
2022/10/30 04:43:57;;;;;;;14.18;7.00;;;12.30;99.90;;;;;;4902729;29;20044;-84
2022/10/30 04:46:22;;;;;;;15.73;7.03;;;12.30;99.90;;;;;;4910515;29;21345;-81
2022/10/30 04:48:48;;;;;;;17.63;6.32;;;12.30;99.90;;;;;;4914263;29;20047;-83
2022/10/30 04:51:14;;;;;;;15.70;7.15;;;12.20;99.90;;;;;;4908781;29;20055;-84
2022/10/30 04:53:41;;;;;;;11.90;7.45;;;12.10;99.90;;;;;;4906566;29;20094;-84
2022/10/30 04:56:06;;;;;;;16.90;8.38;;;12.20;99.90;;;;;;4910443;29;20455;-84
2022/10/30 04:58:32;;;;;;;18.75;6.65;;;12.10;99.90;;;;;;4906297;29;20187;-82
2022/10/30 05:01:02;;;;;;;15.93;6.53;;;12.10;99.90;;;;;;4899158;29;20039;-84
2022/10/30 05:03:27;;;;;;;24.65;8.98;;;12.20;99.90;;;;;;4927387;29;20108;-84
2022/10/30 05:06:02;;;;;;;19.02;9.30;;;12.10;99.90;;;;;;4911220;29;20082;-81
2022/10/30 05:08:28;;;;;;;19.15;9.93;;;12.20;99.90;;;;;;4907258;29;20041;-83
2022/10/30 05:10:55;;;;;;;15.15;9.18;;;12.20;99.90;;;;;;4906078;29;20094;-84
2022/10/30 05:13:21;;;;;;;19.92;9.35;;;12.20;99.90;;;;;;4913234;29;20075;-84
2022/10/30 05:15:46;;;;;;;18.08;10.65;;;12.20;99.90;;;;;;4922118;29;20071;-84
2022/10/30 05:18:12;;;;;;;23.33;10.10;;;12.30;99.90;;;;;;4911003;29;20495;-84
2022/10/30 05:20:38;;;;;;;26.05;10.18;;;12.30;99.90;;;;;;4925166;29;20499;-84
2022/10/30 05:23:04;;;;;;;26.88;10.65;;;12.40;99.90;;;;;;4913720;29;20102;-84
2022/10/30 05:25:30;;;;;;;21.52;11.35;;;12.40;99.90;;;;;;4919908;29;20085;-83
2022/10/30 05:28:04;;;;;;;17.25;10.50;;;12.70;99.90;;;;;;4904627;29;20391;-82
2022/10/30 05:30:31;;;;;;;19.02;10.85;;;12.40;99.90;;;;;;4917505;29;20072;-82
2022/10/30 05:33:01;;;;;;;15.45;10.05;;;12.40;99.90;;;;;;4933398;28;20560;-84
2022/10/30 05:35:28;;;;;;;14.80;9.70;;;12.40;99.90;;;;;;4914069;29;20407;-84
2022/10/30 05:37:53;;;;;;;13.52;7.68;;;12.40;99.90;;;;;;4905926;29;20055;-84
2022/10/30 05:40:19;;;;;;;21.23;8.88;;;12.40;99.90;;;;;;4912369;29;20043;-84
2022/10/30 05:42:48;;;;;;;17.73;10.07;;;12.30;99.90;;;;;;4920176;29;20040;-84
2022/10/30 05:45:14;;;;;;;22.08;11.07;;;12.30;99.90;;;;;;4935929;28;20046;-84
2022/10/30 05:47:40;;;;;;;25.95;11.00;;;12.40;99.90;;;;;;4910219;29;20043;-83
2022/10/30 05:50:11;;;;;;;21.52;11.00;;;12.40;99.90;;;;;;4919123;29;20106;-84
2022/10/30 12:36:42;;;;;;;13.90;7.72;;;20.10;99.90;;;;;;4921982;28;20078;-82
2022/10/30 12:39:21;;;;;;;18.58;9.32;;;20.00;99.90;;;;;;4907862;29;20070;-84
2022/10/30 12:41:57;;;;;;;14.52;8.23;;;20.00;99.90;;;;;;4923491;29;20055;-81
2022/10/30 12:44:32;;;;;;;16.40;8.95;;;20.00;99.90;;;;;;4919344;29;20062;-82
2022/10/30 12:47:10;;;;;;;18.33;7.82;;;19.90;99.90;;;;;;4924016;29;20418;-82
2022/10/30 12:49:40;;;;;;;15.48;7.70;;;19.90;99.90;;;;;;4917987;29;20094;-82
2022/10/30 12:52:30;;;;;;;18.50;8.00;;;19.90;99.90;;;;;;4920395;29;20635;-83
2022/10/30 12:55:13;;;;;;;18.55;8.65;;;19.90;99.90;;;;;;4921249;29;20724;-84
2022/10/30 12:57:51;;;;;;;16.15;8.13;;;19.90;99.90;;;;;;4920584;29;20499;-82
2022/10/30 13:00:17;;;;;;;16.17;8.98;;;19.90;99.90;;;;;;4921801;29;20050;-82
2022/10/30 13:02:53;;;;;;;14.35;7.68;;;20.00;99.90;;;;;;4924144;29;20142;-82
2022/10/30 13:05:33;;;;;;;;;;;20.00;99.90;;;;;;4922913;29;20049;-82
2022/10/30 13:08:21;;;;;;;19.67;8.90;;;20.00;99.90;;;;;;4892641;29;19926;-82
2022/10/30 13:11:01;;;;;;;12.45;8.05;;;20.10;99.90;;;;;;4918165;29;20044;-82
2022/10/30 13:13:37;;;;;;;15.32;8.18;;;20.10;99.90;;;;;;4925045;29;20055;-84
2022/10/30 13:16:11;;;;;;;19.85;8.70;;;20.20;99.90;;;;;;4906894;29;20037;-84
2022/10/30 13:18:37;;;;;;;15.10;9.02;;;20.20;99.90;;;;;;4927662;29;20051;-84
2022/10/30 13:21:24;;;;;;;17.95;9.80;;;20.30;99.90;;;;;;4926641;29;20039;-85
2022/10/30 13:24:18;;;;;;;23.08;9.00;;;20.20;99.90;;;;;;4925656;29;20054;-84
2022/10/30 13:26:59;;;;;;;12.82;7.18;;;20.20;99.90;;;;;;4927320;29;20039;-84
2022/10/30 13:29:37;;;;;;;14.10;7.20;;;20.10;99.90;;;;;;4924642;29;20086;-85
2022/10/30 13:32:37;;;;;;;15.88;7.82;;;20.20;99.90;;;;;;4903587;29;20044;-84
2022/10/30 13:35:28;;;;;;;16.45;8.38;;;20.10;99.90;;;;;;4925965;29;20042;-83
2022/10/30 13:38:30;;;;;;;16.27;7.10;;;20.00;99.90;;;;;;4921491;29;20466;-83
2022/10/30 13:41:07;;;;;;;15.13;8.07;;;20.00;99.90;;;;;;4924401;29;20047;-83
2022/10/30 13:44:11;;;;;;;15.40;7.43;;;19.90;99.90;;;;;;4924796;29;20134;-82
2022/10/30 13:47:01;;;;;;;14.35;8.43;;;19.80;99.90;;;;;;4869538;29;20135;-83
2022/10/30 13:49:50;;;;;;;12.18;7.85;;;19.80;99.90;;;;;;4920642;29;20052;-80
2022/10/30 13:52:21;;;;;;;17.67;9.30;;;19.80;99.90;;;;;;4919932;29;20074;-81
2022/10/30 13:54:58;;;;;;;23.42;9.65;;;19.80;99.90;;;;;;4926968;29;20076;-87
2022/10/30 13:57:37;;;;;;;14.68;8.65;;;19.80;99.90;;;;;;4906329;29;20039;-80
2022/10/30 14:00:18;;;;;;;16.38;9.63;;;19.80;99.90;;;;;;4912446;29;20039;-81
2022/10/30 14:03:05;;;;;;;18.88;8.32;;;19.80;99.90;;;;;;4908427;29;20051;-83
2022/10/30 14:05:55;;;;;;;19.83;8.70;;;19.70;99.90;;;;;;4927491;29;20086;-83
2022/10/30 14:08:51;;;;;;;17.30;8.52;;;19.70;99.90;;;;;;4905021;29;20417;-83
2022/10/30 14:11:18;;;;;;;15.32;9.07;;;19.70;99.90;;;;;;4902598;29;20048;-85
2022/10/30 14:14:22;;;;;;;19.70;9.35;;;20.10;99.90;;;;;;4911144;29;20048;-84
2022/10/30 14:17:03;;;;;;;18.48;8.82;;;19.60;99.90;;;;;;4898983;29;20055;-83
2022/10/30 14:19:28;;;;;;;15.80;9.15;;;19.60;99.90;;;;;;4926595;29;20046;-83
2022/10/30 14:21:56;;;;;;;22.35;8.70;;;19.70;99.90;;;;;;4915029;29;20027;-85
2022/10/30 14:24:32;;;;;;;24.75;10.35;;;19.60;99.90;;;;;;4934606;28;20543;-84
2022/10/30 14:27:04;;;;;;;25.90;11.52;;;19.60;99.90;;;;;;4909193;29;20044;-82
2022/10/30 14:29:33;;;;;;;20.55;9.90;;;19.50;99.90;;;;;;4924414;29;20447;-83
2022/10/30 14:32:21;;;;;;;19.65;9.50;;;19.50;99.90;;;;;;4921148;29;20071;-82
2022/10/30 14:34:50;;;;;;;14.48;8.15;;;19.40;99.90;;;;;;4894872;29;20107;-81
2022/10/30 14:37:36;;;;;;;20.17;8.95;;;19.40;99.90;;;;;;4921919;29;20047;-81
2022/10/30 14:40:20;;;;;;;;;;;19.30;99.90;;;;;;4884537;29;20062;-81
2022/10/30 14:42:52;;;;;;;17.30;8.68;;;19.20;99.90;;;;;;4922660;29;19923;-81
2022/10/30 14:45:42;;;;;;;20.45;9.98;;;19.10;99.90;;;;;;4909403;29;20044;-84
2022/10/30 14:48:25;;;;;;;21.58;10.40;;;19.10;99.90;;;;;;4919747;29;20387;-84
2022/10/30 14:51:00;;;;;;;19.33;9.85;;;19.10;99.90;;;;;;4882481;29;20079;-82
2022/10/30 14:53:37;;;;;;;25.95;13.65;;;19.00;99.90;;;;;;4907011;29;20074;-82
2022/10/30 14:56:19;;;;;;;16.92;10.15;;;19.00;99.90;;;;;;4917538;29;20054;-85
2022/10/30 14:59:14;;;;;;;35.30;16.60;;;18.90;99.90;;;;;;4910013;29;20047;-85
2022/10/30 15:02:17;;;;;;;23.93;11.27;;;18.80;99.90;;;;;;4910034;29;20090;-84
2022/10/30 15:05:30;;;;;;;18.80;10.88;;;18.70;99.90;;;;;;4920885;29;20307;-85
2022/10/30 15:09:11;;;;;;;16.88;10.43;;;18.60;99.90;;;;;;4922598;29;20126;-87
2022/10/30 15:12:46;;;;;;;20.38;10.50;;;18.30;99.90;;;;;;4872277;29;20064;-90
2022/10/30 15:15:32;;;;;;;23.13;11.70;;;18.40;99.90;;;;;;4863486;29;20211;-85
2022/10/30 15:18:26;;;;;;;21.58;9.85;;;18.80;99.90;;;;;;4857960;29;20044;-87
2022/10/30 15:20:54;;;;;;;13.98;10.85;;;18.20;99.90;;;;;;4867956;29;20044;-86
2022/10/30 15:23:32;;;;;;;21.70;12.43;;;18.10;99.90;;;;;;4913259;29;20048;-85
2022/10/30 15:26:04;;;;;;;25.65;13.07;;;18.00;99.90;;;;;;4926618;29;20403;-85
2022/10/30 15:28:33;;;;;;;23.23;11.80;;;18.10;99.90;;;;;;4927873;29;20051;-85
2022/10/30 15:31:06;;;;;;;18.80;12.02;;;18.00;99.90;;;;;;4931602;29;20040;-85
2022/10/30 15:33:36;;;;;;;18.15;12.07;;;17.80;99.90;;;;;;4915130;29;20251;-85
2022/10/30 15:36:15;;;;;;;20.27;11.82;;;17.70;99.90;;;;;;4924108;29;20046;-86
2022/10/30 15:38:40;;;;;;;24.30;12.48;;;17.50;99.90;;;;;;4929191;29;20040;-86
2022/10/30 15:41:08;;;;;;;25.27;12.75;;;17.40;99.90;;;;;;4913568;29;20396;-85
2022/10/30 15:43:38;;;;;;;22.67;11.50;;;17.40;99.90;;;;;;4913012;29;20040;-86
2022/10/30 15:46:10;;;;;;;20.58;11.75;;;17.30;99.90;;;;;;4928118;29;20756;-85
2022/10/30 15:48:40;;;;;;;28.60;13.18;;;17.20;99.90;;;;;;4931376;29;20082;-86
2022/10/30 15:51:14;;;;;;;26.92;12.43;;;17.80;99.90;;;;;;4932134;29;20043;-86
2022/10/30 15:54:10;;;;;;;21.83;11.45;;;17.10;99.90;;;;;;4917165;29;20098;-86
2022/10/30 15:56:45;;;;;;;23.10;12.23;;;17.00;99.90;;;;;;4927061;29;20059;-86
2022/10/30 15:59:22;;;;;;;32.67;15.70;;;17.00;99.90;;;;;;4926887;29;20059;-85
2022/10/30 16:01:49;;;;;;;33.55;15.20;;;16.90;99.90;;;;;;4915875;29;20040;-85
2022/10/30 16:04:29;;;;;;;26.00;15.13;;;16.80;99.90;;;;;;4933794;29;20107;-85
2022/10/30 16:07:00;;;;;;;28.95;14.15;;;16.80;99.90;;;;;;4926802;29;20071;-83
2022/10/30 16:09:27;;;;;;;24.33;14.70;;;16.80;99.90;;;;;;4920881;29;20403;-82
2022/10/30 16:12:13;;;;;;;18.10;13.30;;;16.80;99.90;;;;;;4925837;29;20394;-84
2022/10/30 16:14:38;;;;;;;;;;;16.80;99.90;;;;;;4909256;29;20130;-82
2022/10/30 16:17:09;;;;;;;;;;;16.70;99.90;;;;;;4917359;29;19922;-85
2022/10/30 16:19:43;;;;;;;21.38;13.23;;;16.60;99.90;;;;;;4918414;29;20013;-81
2022/10/30 16:22:22;;;;;;;26.80;14.05;;;16.60;99.90;;;;;;4903589;29;20043;-81
2022/10/30 16:24:48;;;;;;;22.58;13.50;;;16.50;99.90;;;;;;4902504;29;20119;-80
2022/10/30 16:27:19;;;;;;;22.17;11.75;;;16.50;99.90;;;;;;4919426;29;20210;-81
2022/10/30 16:29:48;;;;;;;26.75;11.98;;;16.40;99.90;;;;;;4921269;29;20048;-80
2022/10/30 16:32:17;;;;;;;20.75;11.15;;;16.30;99.90;;;;;;4939645;28;20051;-84
2022/10/30 16:34:44;;;;;;;23.92;12.73;;;16.20;99.90;;;;;;4908211;29;20066;-81
2022/10/30 16:37:35;;;;;;;26.58;12.95;;;16.10;99.90;;;;;;4942526;28;20035;-80
2022/10/30 16:40:13;;;;;;;26.42;14.90;;;16.10;99.90;;;;;;4927774;29;20040;-80
2022/10/30 16:42:39;;;;;;;21.60;12.68;;;16.00;99.90;;;;;;4928670;29;20407;-81
2022/10/30 16:45:11;;;;;;;21.35;13.80;;;16.00;99.90;;;;;;4925966;29;20048;-82
2022/10/30 16:47:44;;;;;;;29.45;13.57;;;15.90;99.90;;;;;;4928101;29;21615;-80
2022/10/30 16:50:15;;;;;;;22.65;13.88;;;15.90;99.90;;;;;;4915609;29;20067;-81
2022/10/30 16:52:42;;;;;;;28.00;13.23;;;15.80;99.90;;;;;;4918524;29;20101;-81
2022/10/30 16:55:19;;;;;;;23.17;13.80;;;15.80;99.90;;;;;;4924563;29;20044;-81
2022/10/30 16:57:52;;;;;;;18.50;11.93;;;15.80;99.90;;;;;;4922855;29;20043;-84
2022/10/30 17:00:27;;;;;;;20.05;11.65;;;15.70;99.90;;;;;;4935729;29;20039;-83
2022/10/30 17:02:55;;;;;;;20.13;13.63;;;15.60;99.90;;;;;;4915558;29;20055;-83
2022/10/30 17:05:25;;;;;;;29.10;17.10;;;15.60;99.90;;;;;;4932305;29;20039;-83
2022/10/30 17:08:18;;;;;;;28.38;17.40;;;15.80;99.90;;;;;;4926708;29;20075;-83
2022/10/30 17:10:56;;;;;;;25.67;18.05;;;15.60;99.90;;;;;;4912601;29;20382;-83
2022/10/30 17:13:40;;;;;;;25.98;15.73;;;15.70;99.90;;;;;;4928787;29;20036;-85
2022/10/30 17:16:15;;;;;;;22.30;16.45;;;15.80;99.90;;;;;;4923835;29;20056;-83
2022/10/30 17:18:40;;;;;;;23.45;16.00;;;15.80;99.90;;;;;;4934447;29;20079;-83
2022/10/30 17:21:17;;;;;;;22.25;13.35;;;15.80;99.90;;;;;;4931447;29;20122;-84
2022/10/30 17:23:49;;;;;;;21.88;13.77;;;15.80;99.90;;;;;;4929873;29;20075;-83
2022/10/30 17:26:15;;;;;;;24.67;15.88;;;15.80;99.90;;;;;;4928501;29;20048;-84
2022/10/30 17:28:41;;;;;;;25.55;15.75;;;15.70;99.90;;;;;;4900397;29;20178;-84
2022/10/30 17:31:35;;;;;;;25.98;16.08;;;15.80;99.90;;;;;;4926553;29;20954;-85
2022/10/30 17:34:17;;;;;;;27.48;17.60;;;15.80;99.90;;;;;;4933013;29;20040;-83
2022/10/30 17:36:44;;;;;;;25.92;16.23;;;15.70;99.90;;;;;;4917832;29;20060;-83
2022/10/30 17:39:22;;;;;;;23.33;16.42;;;15.90;99.90;;;;;;4920002;29;20047;-85
2022/10/30 17:41:49;;;;;;;33.22;16.70;;;15.90;99.90;;;;;;4930916;29;20055;-84
2022/10/30 17:44:19;;;;;;;30.00;16.55;;;15.80;99.90;;;;;;4945014;28;20571;-83
2022/10/30 17:46:49;;;;;;;21.55;16.25;;;15.70;99.90;;;;;;4927546;29;20048;-84
2022/10/30 17:49:31;;;;;;;24.15;17.00;;;15.80;99.90;;;;;;4908223;29;20047;-83
2022/10/30 17:51:58;;;;;;;25.08;16.52;;;15.80;99.90;;;;;;4939886;28;20040;-80
2022/10/30 17:54:26;;;;;;;21.23;15.02;;;15.70;99.90;;;;;;4894018;29;20062;-83
2022/10/30 17:56:52;;;;;;;27.08;16.60;;;15.70;99.90;;;;;;4907121;29;20055;-81
2022/10/30 17:59:18;;;;;;;23.13;14.52;;;15.60;99.90;;;;;;4913331;29;20040;-81
2022/10/30 18:01:44;;;;;;;21.80;13.82;;;15.70;99.90;;;;;;4899204;29;20616;-80
2022/10/30 18:04:15;;;;;;;24.45;13.65;;;15.60;99.90;;;;;;4904718;29;20039;-82
2022/10/30 18:06:41;;;;;;;24.52;15.40;;;15.60;99.90;;;;;;4925195;29;20440;-81
2022/10/30 18:09:07;;;;;;;26.33;15.38;;;15.60;99.90;;;;;;4927809;29;20048;-81
2022/10/30 18:11:34;;;;;;;28.48;15.32;;;15.70;99.90;;;;;;4927377;29;20044;-82
2022/10/30 18:13:59;;;;;;;21.00;14.65;;;15.70;99.90;;;;;;4908340;29;20480;-82
2022/10/30 18:16:25;;;;;;;26.48;13.88;;;15.70;99.90;;;;;;4913277;29;20099;-81
2022/10/30 18:18:52;;;;;;;24.88;14.57;;;15.70;99.90;;;;;;4914208;29;20031;-83
2022/10/30 18:21:19;;;;;;;27.90;14.73;;;15.70;99.90;;;;;;4902856;29;20517;-81
2022/10/30 18:23:45;;;;;;;20.92;14.18;;;15.60;99.90;;;;;;4907958;29;20076;-83
2022/10/30 18:26:14;;;;;;;23.10;13.10;;;15.70;99.90;;;;;;4892754;29;20048;-81
2022/10/30 18:28:41;;;;;;;21.13;13.40;;;15.60;99.90;;;;;;4899299;29;20039;-81
2022/10/30 18:31:16;;;;;;;23.23;13.80;;;15.60;99.90;;;;;;4909616;29;20046;-83
2022/10/30 18:33:46;;;;;;;18.20;14.00;;;15.70;99.90;;;;;;4922751;29;20094;-83
2022/10/30 18:36:15;;;;;;;18.42;12.48;;;15.60;99.90;;;;;;4891652;29;20499;-82
2022/10/30 18:38:41;;;;;;;24.10;14.82;;;15.50;99.90;;;;;;4913783;29;20068;-82
2022/10/30 18:41:16;;;;;;;24.42;15.38;;;15.50;99.90;;;;;;4931864;28;20040;-82
2022/10/30 18:43:41;;;;;;;24.58;14.20;;;15.40;99.90;;;;;;4888187;29;20080;-83
2022/10/30 18:46:11;;;;;;;22.05;13.98;;;15.30;99.90;;;;;;4886202;29;20083;-82
2022/10/30 18:49:17;;;;;;;21.55;11.98;;;15.20;99.90;;;;;;4927217;29;20074;-84
2022/10/30 18:52:21;;;;;;;24.40;12.63;;;15.20;99.90;;;;;;4894598;29;20055;-84
2022/10/30 18:55:19;;;;;;;27.92;15.68;;;15.20;99.90;;;;;;4902749;29;20063;-84
2022/10/30 18:57:46;;;;;;;20.30;14.25;;;15.10;99.90;;;;;;4912194;29;20479;-84
2022/10/30 19:00:14;;;;;;;21.25;14.07;;;15.10;99.90;;;;;;4908454;29;20083;-85
2022/10/30 19:02:40;;;;;;;17.90;12.93;;;15.10;99.90;;;;;;4892289;29;20126;-84
2022/10/30 19:05:28;;;;;;;20.05;13.82;;;15.00;99.90;;;;;;4882835;29;20158;-83
2022/10/30 19:07:58;;;;;;;25.67;14.40;;;15.00;99.90;;;;;;4889481;29;20032;-85
2022/10/30 19:10:55;;;;;;;24.05;15.55;;;15.20;99.90;;;;;;4914435;29;20134;-85
2022/10/30 19:13:30;;;;;;;26.23;15.25;;;15.00;99.90;;;;;;4898363;29;20039;-85
2022/10/30 19:15:56;;;;;;;19.50;15.60;;;15.40;99.90;;;;;;4887526;29;20418;-85
2022/10/30 19:18:24;;;;;;;25.75;16.23;;;15.20;99.90;;;;;;4900369;29;20589;-84
2022/10/30 19:21:03;;;;;;;26.63;15.88;;;15.00;99.90;;;;;;4881894;29;20035;-86
2022/10/30 19:23:29;;;;;;;22.42;16.80;;;15.10;99.90;;;;;;4897259;29;20042;-85
2022/10/30 19:25:57;;;;;;;27.52;17.10;;;15.10;99.90;;;;;;4893869;29;20083;-84
2022/10/30 19:28:25;;;;;;;27.48;17.35;;;15.10;99.90;;;;;;4909791;29;20052;-84
2022/10/30 19:31:13;;;;;;;24.75;17.13;;;15.00;99.90;;;;;;4887875;29;20043;-85
2022/10/30 19:33:49;;;;;;;29.88;19.25;;;15.00;99.90;;;;;;4897841;29;20043;-85
2022/10/30 19:36:34;;;;;;;34.97;18.88;;;15.00;99.90;;;;;;4914265;29;20052;-85
2022/10/30 19:39:17;;;;;;;28.42;19.65;;;15.00;99.90;;;;;;4929691;29;20055;-85
2022/10/30 19:41:46;;;;;;;30.63;19.55;;;15.00;99.90;;;;;;4883125;29;20059;-85
2022/10/30 19:44:40;;;;;;;31.25;19.25;;;15.00;99.90;;;;;;4925034;29;20040;-85
2022/10/30 19:47:08;;;;;;;31.60;21.25;;;15.10;99.90;;;;;;4896760;29;20435;-86
2022/10/30 19:49:34;;;;;;;29.40;19.50;;;15.00;99.90;;;;;;4900326;29;20114;-85